createdAt,value
2023-03-08T00:01:23.816Z,100.00
2023-03-08T00:03:57.084Z,100.00
2023-03-08T00:06:26.829Z,100.00
2023-03-08T00:08:59.987Z,100.00
2023-03-08T00:11:29.824Z,100.00
2023-03-08T00:13:58.614Z,100.00
2023-03-08T00:16:26.936Z,100.00
2023-03-08T00:18:55.831Z,100.00
2023-03-08T00:21:24.318Z,100.00
2023-03-08T00:23:54.761Z,100.00
2023-03-08T00:26:23.203Z,100.00
2023-03-08T00:28:51.637Z,100.00
2023-03-08T00:31:21.887Z,100.00
2023-03-08T00:33:55.023Z,100.00
2023-03-08T00:36:23.736Z,100.00
2023-03-08T00:38:52.746Z,100.00
2023-03-08T00:41:21.252Z,100.00
2023-03-08T00:43:50.233Z,100.00
2023-03-08T00:46:18.591Z,100.00
2023-03-08T00:48:46.895Z,100.00
2023-03-08T00:51:19.669Z,100.00
2023-03-08T00:53:49.016Z,100.00
2023-03-08T00:56:17.406Z,100.00
2023-03-08T00:58:46.283Z,100.00
2023-03-08T01:01:17.761Z,100.00
2023-03-08T01:03:48.034Z,100.00
2023-03-08T01:06:17.738Z,100.00
2023-03-08T01:08:46.918Z,100.00
2023-03-08T01:11:24.798Z,100.00
2023-03-08T01:13:53.918Z,100.00
2023-03-08T01:16:33.690Z,100.00
2023-03-08T01:19:02.808Z,100.00
2023-03-08T01:21:32.298Z,100.00
2023-03-08T01:24:01.500Z,100.00
2023-03-08T01:26:31.319Z,100.00
2023-03-08T01:28:59.649Z,100.00
2023-03-08T01:31:30.722Z,100.00
2023-03-08T01:34:01.027Z,100.00
2023-03-08T01:36:29.601Z,100.00
2023-03-08T01:39:01.104Z,100.00
2023-03-08T01:41:31.959Z,100.00
2023-03-08T01:44:01.211Z,100.00
2023-03-08T01:46:31.064Z,100.00
2023-03-08T01:49:20.537Z,100.00
2023-03-08T01:52:02.978Z,100.00
2023-03-08T01:54:53.596Z,100.00
2023-03-08T01:57:51.936Z,100.00
2023-03-08T02:00:23.505Z,100.00
2023-03-08T02:03:03.329Z,100.00
2023-03-08T02:05:32.652Z,100.00
2023-03-08T02:08:06.791Z,100.00
2023-03-08T02:10:38.418Z,100.00
2023-03-08T02:13:07.843Z,100.00
2023-03-08T02:15:38.231Z,100.00
2023-03-08T02:18:06.811Z,100.00
2023-03-08T02:20:38.950Z,100.00
2023-03-08T02:23:18.753Z,100.00
2023-03-08T02:26:06.469Z,100.00
2023-03-08T02:28:35.238Z,100.00
2023-03-08T02:31:03.470Z,100.00
2023-03-08T02:33:32.519Z,100.00
2023-03-08T02:36:05.981Z,100.00
2023-03-08T02:38:34.769Z,100.00
2023-03-08T02:41:02.981Z,100.00
2023-03-08T02:43:32.006Z,100.00
2023-03-08T02:46:01.112Z,100.00
2023-03-08T02:48:29.362Z,100.00
2023-03-08T02:50:57.653Z,100.00
2023-03-08T02:53:25.890Z,100.00
2023-03-08T02:55:54.356Z,100.00
2023-03-08T02:58:23.711Z,100.00
2023-03-08T03:00:52.228Z,100.00
2023-03-08T03:03:20.460Z,100.00
2023-03-08T03:05:52.127Z,100.00
2023-03-08T03:08:25.528Z,100.00
2023-03-08T03:10:56.142Z,100.00
2023-03-08T03:13:24.301Z,100.00
2023-03-08T03:15:52.972Z,100.00
2023-03-08T03:18:21.211Z,100.00
2023-03-08T03:20:49.506Z,100.00
2023-03-08T03:23:17.780Z,100.00
2023-03-08T03:25:50.814Z,100.00
2023-03-08T03:28:19.799Z,100.00
2023-03-08T03:30:49.797Z,100.00
2023-03-08T03:33:18.169Z,100.00
2023-03-08T03:35:46.672Z,100.00
2023-03-08T03:38:15.011Z,100.00
2023-03-08T03:40:45.332Z,100.00
2023-03-08T03:43:14.244Z,100.00
2023-03-08T03:45:42.576Z,100.00
2023-03-08T03:48:10.894Z,100.00
2023-03-08T03:50:39.491Z,100.00
2023-03-08T03:53:13.217Z,100.00
2023-03-08T03:55:41.798Z,100.00
2023-03-08T03:58:10.020Z,100.00
2023-03-08T04:00:38.749Z,100.00
2023-03-08T04:03:12.971Z,100.00
2023-03-08T04:05:41.439Z,100.00
2023-03-08T04:08:10.222Z,100.00
2023-03-08T04:10:39.876Z,100.00
2023-03-08T04:13:12.392Z,100.00
2023-03-08T04:15:41.249Z,100.00
2023-03-08T04:18:11.227Z,100.00
2023-03-08T04:20:42.125Z,100.00
2023-03-08T04:23:10.997Z,100.00
2023-03-08T04:25:41.160Z,100.00
2023-03-08T04:28:10.766Z,100.00
2023-03-08T04:30:40.845Z,100.00
2023-03-08T04:33:09.580Z,100.00
2023-03-08T04:35:46.067Z,100.00
2023-03-08T04:38:15.640Z,100.00
2023-03-08T04:41:05.475Z,100.00
2023-03-08T04:43:45.682Z,100.00
2023-03-08T04:46:15.023Z,100.00
2023-03-08T04:48:43.663Z,100.00
2023-03-08T04:51:14.564Z,100.00
2023-03-08T04:53:45.486Z,100.00
2023-03-08T04:56:16.016Z,100.00
2023-03-08T04:58:45.358Z,100.00
2023-03-08T05:01:18.300Z,100.00
2023-03-08T05:03:51.491Z,100.00
2023-03-08T05:06:22.478Z,100.00
2023-03-08T05:08:50.992Z,100.00
2023-03-08T05:11:22.605Z,100.00
2023-03-08T05:13:53.184Z,100.00
2023-03-08T05:16:21.632Z,100.00
2023-03-08T05:18:50.084Z,100.00
2023-03-08T05:21:22.145Z,100.00
2023-03-08T05:23:53.469Z,100.00
2023-03-08T05:26:22.851Z,100.00
2023-03-08T05:28:52.135Z,100.00
2023-03-08T05:31:23.975Z,100.00
2023-03-08T05:33:53.968Z,100.00
2023-03-08T05:36:31.561Z,100.00
2023-03-08T05:39:00.293Z,100.00
2023-03-08T05:41:35.964Z,100.00
2023-03-08T05:44:04.852Z,100.00
2023-03-08T05:46:34.720Z,100.00
2023-03-08T05:49:04.331Z,100.00
2023-03-08T05:51:34.149Z,100.00
2023-03-08T05:54:02.519Z,100.00
2023-03-08T05:56:32.013Z,100.00
2023-03-08T05:59:07.487Z,100.00
2023-03-08T06:01:36.411Z,100.00
2023-03-08T06:04:11.701Z,100.00
2023-03-08T06:06:41.455Z,100.00
2023-03-08T06:09:10.489Z,100.00
2023-03-08T06:11:40.962Z,100.00
2023-03-08T06:14:11.591Z,100.00
2023-03-08T06:16:41.571Z,100.00
2023-03-08T06:19:11.753Z,100.00
2023-03-08T06:21:41.892Z,100.00
2023-03-08T06:24:10.331Z,100.00
2023-03-08T06:26:39.530Z,100.00
2023-03-08T06:29:07.991Z,100.00
2023-03-08T06:31:37.978Z,100.00
2023-03-08T06:34:07.117Z,100.00
2023-03-08T06:36:35.545Z,100.00
2023-03-08T06:39:03.966Z,100.00
2023-03-08T06:41:33.205Z,100.00
2023-03-08T06:44:01.879Z,100.00
2023-03-08T06:46:30.282Z,100.00
2023-03-08T06:49:01.567Z,100.00
2023-03-08T06:51:30.210Z,100.00
2023-03-08T06:53:58.496Z,100.00
2023-03-08T06:56:28.511Z,100.00
2023-03-08T06:58:56.814Z,100.00
2023-03-08T07:01:31.173Z,100.00
2023-03-08T07:04:02.747Z,100.00
2023-03-08T07:06:31.046Z,100.00
2023-03-08T07:08:59.274Z,100.00
2023-03-08T07:11:29.871Z,100.00
2023-03-08T07:13:59.497Z,100.00
2023-03-08T07:16:28.320Z,100.00
2023-03-08T07:18:57.145Z,100.00
2023-03-08T07:21:25.501Z,100.00
2023-03-08T07:23:53.796Z,100.00
2023-03-08T07:26:22.018Z,100.00
2023-03-08T07:28:50.672Z,100.00
2023-03-08T07:31:18.959Z,100.00
2023-03-08T07:33:47.264Z,100.00
2023-03-08T07:36:15.659Z,100.00
2023-03-08T07:38:44.050Z,100.00
2023-03-08T07:41:12.607Z,100.00
2023-03-08T07:43:41.161Z,100.00
2023-03-08T07:46:25.943Z,100.00
2023-03-08T07:48:55.482Z,100.00
2023-03-08T07:51:27.127Z,100.00
2023-03-08T07:53:55.342Z,100.00
2023-03-08T07:56:23.570Z,99.97
2023-03-08T07:58:51.813Z,99.81
2023-03-08T08:01:20.047Z,99.63
2023-03-08T08:03:48.225Z,98.74
2023-03-08T08:06:17.059Z,98.29
2023-03-08T08:08:45.617Z,96.79
2023-03-08T08:11:16.195Z,95.36
2023-03-08T08:13:44.854Z,93.75
2023-03-08T08:16:16.943Z,93.75
2023-03-08T08:18:45.904Z,93.71
2023-03-08T08:21:16.282Z,93.72
2023-03-08T08:23:44.949Z,93.26
2023-03-08T08:26:22.506Z,93.54
2023-03-08T08:28:53.081Z,93.44
2023-03-08T08:31:24.566Z,92.61
2023-03-08T08:33:52.885Z,92.08
2023-03-08T08:36:23.548Z,91.65
2023-03-08T08:38:54.787Z,91.44
2023-03-08T08:41:24.025Z,88.94
2023-03-08T08:43:52.485Z,88.20
2023-03-08T08:46:20.741Z,86.33
2023-03-08T08:48:52.661Z,86.30
2023-03-08T08:51:21.089Z,84.22
2023-03-08T08:53:53.901Z,85.12
2023-03-08T08:56:27.932Z,87.95
2023-03-08T08:59:01.416Z,92.48
2023-03-08T09:01:33.654Z,95.46
2023-03-08T09:04:02.138Z,99.41
2023-03-08T09:06:31.212Z,100.00
2023-03-08T09:09:00.372Z,100.00
2023-03-08T09:11:28.664Z,100.00
2023-03-08T09:13:57.720Z,100.00
2023-03-08T09:16:31.781Z,100.00
2023-03-08T09:19:02.637Z,100.00
2023-03-08T09:21:32.481Z,100.00
2023-03-08T09:24:04.119Z,100.00
2023-03-08T09:26:33.901Z,100.00
2023-03-08T09:29:05.711Z,100.00
2023-03-08T09:31:36.633Z,100.00
2023-03-08T09:34:09.377Z,100.00
2023-03-08T09:36:39.969Z,100.00
2023-03-08T09:39:10.326Z,100.00
2023-03-08T09:41:39.203Z,100.00
2023-03-08T09:44:10.635Z,100.00
2023-03-08T09:46:48.764Z,98.16
2023-03-08T09:49:27.073Z,98.27
2023-03-08T09:52:05.316Z,97.42
2023-03-08T09:54:38.451Z,92.62
2023-03-08T09:57:17.249Z,89.39
2023-03-08T10:00:12.229Z,82.32
2023-03-08T10:03:03.999Z,71.44
2023-03-08T10:05:45.782Z,68.74
2023-03-08T10:08:18.573Z,68.35
2023-03-08T10:11:07.557Z,70.70
2023-03-08T10:13:43.612Z,70.47
2023-03-08T10:16:25.510Z,78.24
2023-03-08T10:19:12.987Z,85.66
2023-03-08T10:21:43.809Z,88.09
2023-03-08T10:24:27.028Z,90.25
2023-03-08T10:27:04.820Z,94.05
2023-03-08T10:29:33.257Z,95.48
2023-03-08T10:32:02.380Z,95.96
2023-03-08T10:34:32.943Z,94.46
2023-03-08T10:37:04.830Z,93.74
2023-03-08T10:39:33.082Z,92.78
2023-03-08T10:42:06.854Z,89.27
2023-03-08T10:44:40.396Z,89.66
2023-03-08T10:47:20.732Z,92.13
2023-03-08T10:49:48.980Z,90.78
2023-03-08T10:52:28.489Z,89.36
2023-03-08T10:55:17.395Z,85.85
2023-03-08T10:57:57.319Z,86.01
2023-03-08T11:00:37.815Z,87.89
2023-03-08T11:03:16.983Z,77.56
2023-03-08T11:05:59.293Z,81.43
2023-03-08T11:08:34.467Z,82.78
2023-03-08T11:11:11.987Z,82.12
2023-03-08T11:13:47.214Z,72.04
2023-03-08T11:17:23.549Z,61.68
2023-03-08T11:20:21.405Z,49.57
2023-03-08T11:23:02.648Z,50.87
2023-03-08T11:25:37.218Z,48.51
2023-03-08T11:28:08.581Z,47.59
2023-03-08T11:30:50.009Z,46.81
2023-03-08T11:33:38.862Z,47.30
2023-03-08T11:36:20.479Z,46.19
2023-03-08T11:38:59.236Z,44.63
2023-03-08T11:41:38.685Z,44.14
2023-03-08T11:44:31.389Z,43.07
2023-03-08T11:47:38.994Z,42.38
2023-03-08T11:50:22.631Z,42.45
2023-03-08T11:53:06.299Z,42.27
2023-03-08T11:55:50.891Z,42.27
2023-03-08T11:58:49.244Z,41.61
2023-03-08T12:01:29.645Z,41.89
2023-03-08T12:04:06.760Z,41.12
2023-03-08T12:06:47.275Z,41.05
2023-03-08T12:09:53.133Z,40.62
2023-03-08T12:12:35.260Z,40.73
2023-03-08T12:15:23.617Z,40.87
2023-03-08T12:18:18.617Z,40.83
2023-03-08T12:20:48.500Z,41.10
2023-03-08T12:23:30.705Z,40.78
2023-03-08T12:26:40.652Z,38.72
2023-03-08T12:29:26.797Z,38.93
2023-03-08T12:31:55.764Z,38.81
2023-03-08T12:34:36.303Z,39.34
2023-03-08T12:37:19.305Z,39.69
2023-03-08T12:40:06.086Z,40.15
2023-03-08T12:42:38.322Z,40.14
2023-03-08T12:45:30.290Z,40.23
2023-03-08T12:48:02.250Z,40.25
2023-03-08T12:50:39.068Z,40.34
2023-03-08T12:53:31.603Z,40.38
2023-03-08T12:56:02.771Z,40.26
2023-03-08T12:58:34.152Z,40.16
2023-03-08T13:01:24.274Z,39.77
2023-03-08T13:03:52.637Z,39.86
2023-03-08T13:06:24.551Z,40.16
2023-03-08T13:09:06.680Z,40.03
2023-03-08T13:11:43.587Z,40.36
2023-03-08T13:14:41.365Z,40.75
2023-03-08T13:17:35.430Z,40.74
2023-03-08T13:20:22.147Z,40.12
2023-03-08T13:22:53.558Z,40.22
2023-03-08T13:25:33.345Z,40.26
2023-03-08T13:28:15.319Z,40.45
2023-03-08T13:31:00.199Z,40.22
2023-03-08T13:33:37.541Z,40.27
2023-03-08T13:36:16.312Z,40.22
2023-03-08T13:38:45.459Z,40.11
2023-03-08T13:41:13.599Z,40.21
2023-03-08T13:43:41.879Z,40.19
2023-03-08T13:46:17.159Z,40.28
2023-03-08T13:48:46.042Z,40.40
2023-03-08T13:51:19.229Z,40.74
2023-03-08T13:53:47.770Z,41.07
2023-03-08T13:56:26.320Z,41.29
2023-03-08T13:58:58.140Z,41.20
2023-03-08T14:01:27.803Z,41.28
2023-03-08T14:03:58.528Z,41.32
2023-03-08T14:06:34.191Z,41.34
2023-03-08T14:09:03.927Z,41.56
2023-03-08T14:11:36.131Z,42.20
2023-03-08T14:14:07.375Z,42.19
2023-03-08T14:16:38.439Z,42.60
2023-03-08T14:19:35.542Z,42.74
2023-03-08T14:22:32.178Z,43.04
2023-03-08T14:25:02.634Z,43.24
2023-03-08T14:27:39.139Z,43.43
2023-03-08T14:30:22.814Z,43.79
2023-03-08T14:33:00.725Z,44.14
2023-03-08T14:35:41.942Z,44.43
2023-03-08T14:38:31.345Z,44.83
2023-03-08T14:41:06.418Z,44.88
2023-03-08T14:43:37.188Z,44.76
2023-03-08T14:46:17.646Z,45.05
2023-03-08T14:48:58.295Z,45.32
2023-03-08T14:51:37.197Z,45.59
2023-03-08T14:54:20.585Z,45.62
2023-03-08T14:56:49.944Z,45.94
2023-03-08T14:59:27.483Z,46.25
2023-03-08T15:01:56.517Z,46.80
2023-03-08T15:04:25.908Z,47.14
2023-03-08T15:06:55.299Z,47.46
2023-03-08T15:09:23.736Z,48.22
2023-03-08T15:11:54.224Z,48.65
2023-03-08T15:14:22.494Z,48.85
2023-03-08T15:16:51.417Z,49.12
2023-03-08T15:19:20.252Z,49.56
2023-03-08T15:21:49.747Z,50.04
2023-03-08T15:24:19.443Z,50.42
2023-03-08T15:26:47.870Z,50.81
2023-03-08T15:29:28.149Z,51.63
2023-03-08T15:31:57.824Z,52.44
2023-03-08T15:34:28.677Z,53.15
2023-03-08T15:36:57.510Z,53.54
2023-03-08T15:39:28.371Z,53.82
2023-03-08T15:42:01.592Z,54.23
2023-03-08T15:44:34.970Z,54.35
2023-03-08T15:47:04.154Z,54.04
2023-03-08T15:49:32.451Z,53.97
2023-03-08T15:52:00.813Z,53.75
2023-03-08T15:54:29.538Z,52.92
2023-03-08T15:56:58.652Z,52.50
2023-03-08T15:59:27.433Z,52.25
2023-03-08T16:01:55.797Z,52.22
2023-03-08T16:04:24.043Z,52.29
2023-03-08T16:06:52.336Z,52.07
2023-03-08T16:09:20.630Z,52.32
2023-03-08T16:11:51.180Z,52.39
2023-03-08T16:14:20.027Z,52.59
2023-03-08T16:16:48.286Z,52.67
2023-03-08T16:19:16.574Z,53.10
2023-03-08T16:21:44.815Z,53.26
2023-03-08T16:24:13.452Z,53.37
2023-03-08T16:26:44.054Z,53.57
2023-03-08T16:29:12.310Z,53.84
2023-03-08T16:31:40.952Z,54.17
2023-03-08T16:34:11.819Z,54.35
2023-03-08T16:36:40.031Z,54.54
2023-03-08T16:39:08.672Z,54.74
2023-03-08T16:41:39.554Z,54.94
2023-03-08T16:44:26.130Z,55.24
2023-03-08T16:46:55.068Z,55.52
2023-03-08T16:49:28.591Z,55.74
2023-03-08T16:51:59.054Z,56.28
2023-03-08T16:54:28.836Z,56.58
2023-03-08T16:56:59.788Z,56.87
2023-03-08T16:59:29.554Z,57.09
2023-03-08T17:02:01.320Z,57.40
2023-03-08T17:04:29.700Z,57.70
2023-03-08T17:06:58.071Z,58.10
2023-03-08T17:09:26.367Z,58.51
2023-03-08T17:11:54.936Z,58.90
2023-03-08T17:14:23.467Z,59.24
2023-03-08T17:16:51.796Z,59.48
2023-03-08T17:19:20.799Z,59.39
2023-03-08T17:21:51.340Z,59.28
2023-03-08T17:24:20.099Z,59.16
2023-03-08T17:26:57.217Z,59.25
2023-03-08T17:29:26.592Z,59.40
2023-03-08T17:31:57.242Z,59.31
2023-03-08T17:34:25.738Z,59.30
2023-03-08T17:36:56.567Z,59.16
2023-03-08T17:39:25.488Z,59.26
2023-03-08T17:41:57.018Z,59.36
2023-03-08T17:44:25.303Z,59.49
2023-03-08T17:46:53.822Z,59.52
2023-03-08T17:49:25.239Z,59.40
2023-03-08T17:51:53.896Z,59.20
2023-03-08T17:54:23.336Z,58.95
2023-03-08T17:56:51.724Z,58.79
2023-03-08T17:59:21.258Z,58.70
2023-03-08T18:01:49.537Z,58.62
2023-03-08T18:04:19.249Z,58.83
2023-03-08T18:06:49.925Z,58.78
2023-03-08T18:09:18.460Z,58.89
2023-03-08T18:11:49.318Z,58.70
2023-03-08T18:14:24.269Z,58.65
2023-03-08T18:16:54.497Z,58.42
2023-03-08T18:19:22.829Z,58.35
2023-03-08T18:21:56.056Z,58.42
2023-03-08T18:24:27.222Z,58.16
2023-03-08T18:26:57.088Z,58.27
2023-03-08T18:29:29.802Z,58.18
2023-03-08T18:31:58.850Z,57.88
2023-03-08T18:34:28.203Z,57.87
2023-03-08T18:36:59.201Z,58.02
2023-03-08T18:39:27.702Z,58.20
2023-03-08T18:41:58.448Z,58.43
2023-03-08T18:44:30.294Z,58.80
2023-03-08T18:47:01.387Z,59.13
2023-03-08T18:49:29.808Z,59.29
2023-03-08T18:51:58.947Z,59.41
2023-03-08T18:54:27.152Z,59.43
2023-03-08T18:56:57.063Z,59.39
2023-03-08T18:59:26.983Z,59.58
2023-03-08T19:01:55.266Z,59.68
2023-03-08T19:04:24.818Z,59.94
2023-03-08T19:06:53.058Z,60.17
2023-03-08T19:09:25.524Z,60.18
2023-03-08T19:11:53.872Z,60.36
2023-03-08T19:14:23.606Z,60.46
2023-03-08T19:16:52.292Z,60.83
2023-03-08T19:19:20.832Z,61.44
2023-03-08T19:21:51.799Z,62.05
2023-03-08T19:24:21.319Z,62.40
2023-03-08T19:26:53.053Z,62.60
2023-03-08T19:29:30.146Z,62.73
2023-03-08T19:32:06.644Z,62.87
2023-03-08T19:34:43.631Z,63.09
2023-03-08T19:37:13.778Z,63.25
2023-03-08T19:39:43.780Z,63.59
2023-03-08T19:42:15.566Z,63.84
2023-03-08T19:44:48.564Z,63.94
2023-03-08T19:47:17.843Z,64.09
2023-03-08T19:49:47.045Z,64.01
2023-03-08T19:52:15.379Z,64.09
2023-03-08T19:54:44.644Z,64.05
2023-03-08T19:57:13.407Z,64.22
2023-03-08T19:59:41.906Z,64.45
2023-03-08T20:02:12.783Z,64.41
2023-03-08T20:04:43.262Z,64.31
2023-03-08T20:07:12.531Z,64.54
2023-03-08T20:09:42.499Z,64.46
2023-03-08T20:12:10.866Z,64.38
2023-03-08T20:14:40.120Z,64.55
2023-03-08T20:17:08.313Z,64.63
2023-03-08T20:19:36.826Z,64.52
2023-03-08T20:22:05.059Z,64.57
2023-03-08T20:24:33.215Z,64.55
2023-03-08T20:27:02.591Z,64.66
2023-03-08T20:29:31.156Z,65.04
2023-03-08T20:31:59.712Z,65.28
2023-03-08T20:34:27.988Z,65.52
2023-03-08T20:36:56.902Z,65.95
2023-03-08T20:39:25.565Z,66.44
2023-03-08T20:41:54.175Z,66.91
2023-03-08T20:44:22.688Z,67.18
2023-03-08T20:46:50.907Z,67.73
2023-03-08T20:49:19.240Z,68.29
2023-03-08T20:51:48.207Z,68.52
2023-03-08T20:54:17.080Z,68.95
2023-03-08T20:56:45.362Z,69.28
2023-03-08T20:59:16.121Z,69.55
2023-03-08T21:01:45.161Z,69.71
2023-03-08T21:04:13.526Z,69.79
2023-03-08T21:06:41.944Z,69.93
2023-03-08T21:09:11.890Z,69.96
2023-03-08T21:11:41.086Z,70.03
2023-03-08T21:14:11.098Z,70.09
2023-03-08T21:16:39.501Z,69.94
2023-03-08T21:19:09.071Z,69.97
2023-03-08T21:21:43.605Z,70.07
2023-03-08T21:24:15.366Z,69.94
2023-03-08T21:26:45.731Z,70.15
2023-03-08T21:29:17.425Z,69.94
2023-03-08T21:31:49.075Z,69.67
2023-03-08T21:34:18.802Z,69.41
2023-03-08T21:36:47.280Z,69.38
2023-03-08T21:39:16.313Z,69.08
2023-03-08T21:41:46.943Z,68.79
2023-03-08T21:44:18.540Z,68.62
2023-03-08T21:46:47.949Z,68.16
2023-03-08T21:49:28.240Z,67.21
2023-03-08T21:51:58.216Z,66.64
2023-03-08T21:54:28.748Z,66.21
2023-03-08T21:56:58.307Z,65.75
2023-03-08T21:59:27.954Z,65.47
2023-03-08T22:01:58.883Z,65.39
2023-03-08T22:04:27.844Z,65.33
2023-03-08T22:06:56.713Z,65.30
2023-03-08T22:09:28.261Z,65.20
2023-03-08T22:11:59.629Z,64.84
2023-03-08T22:14:28.719Z,64.83
2023-03-08T22:16:56.938Z,64.57
2023-03-08T22:19:25.762Z,64.65
2023-03-08T22:21:54.075Z,64.97
2023-03-08T22:24:22.342Z,65.35
2023-03-08T22:26:50.536Z,65.95
2023-03-08T22:29:18.717Z,66.23
2023-03-08T22:31:47.499Z,66.52
2023-03-08T22:34:15.701Z,66.99
2023-03-08T22:36:43.912Z,67.29
2023-03-08T22:39:12.242Z,67.35
2023-03-08T22:41:40.426Z,67.30
2023-03-08T22:44:13.720Z,67.21
2023-03-08T22:46:42.664Z,66.88
2023-03-08T22:49:11.911Z,66.74
2023-03-08T22:51:41.733Z,66.38
2023-03-08T22:54:22.083Z,65.98
2023-03-08T22:56:50.530Z,65.68
2023-03-08T22:59:19.351Z,65.37
2023-03-08T23:01:47.649Z,65.09
2023-03-08T23:04:15.889Z,64.79
2023-03-08T23:06:44.602Z,64.40
2023-03-08T23:09:13.738Z,64.24
2023-03-08T23:11:42.645Z,64.24
2023-03-08T23:14:11.729Z,64.08
2023-03-08T23:16:42.297Z,64.04
2023-03-08T23:19:17.402Z,63.90
2023-03-08T23:21:45.988Z,63.61
2023-03-08T23:24:15.492Z,63.56
2023-03-08T23:26:46.357Z,63.36
2023-03-08T23:29:15.142Z,63.35
2023-03-08T23:31:45.700Z,63.06
2023-03-08T23:34:14.391Z,63.17
2023-03-08T23:36:42.989Z,63.08
2023-03-08T23:39:11.524Z,62.76
2023-03-08T23:41:41.989Z,62.33
2023-03-08T23:44:11.132Z,61.70
2023-03-08T23:46:39.476Z,61.22
2023-03-08T23:49:09.755Z,60.68
2023-03-08T23:51:38.139Z,60.31
2023-03-08T23:54:06.920Z,59.83
2023-03-08T23:56:40.582Z,59.64
2023-03-08T23:59:18.438Z,59.41
